createdAt,value
2023-11-17T00:02:05.236Z,3.30
2023-11-17T00:04:33.032Z,2.75
2023-11-17T00:07:00.723Z,2.78
2023-11-17T00:09:28.457Z,2.53
2023-11-17T00:11:55.994Z,2.90
2023-11-17T00:14:23.767Z,2.40
2023-11-17T00:16:51.584Z,1.92
2023-11-17T00:19:20.115Z,2.53
2023-11-17T00:21:47.700Z,2.00
2023-11-17T00:24:15.276Z,2.40
2023-11-17T00:26:42.935Z,2.28
2023-11-17T00:29:11.444Z,1.98
2023-11-17T00:31:39.294Z,2.33
2023-11-17T00:34:07.098Z,1.90
2023-11-17T00:36:36.049Z,2.10
2023-11-17T00:39:04.047Z,2.53
2023-11-17T00:41:32.307Z,2.03
2023-11-17T00:44:00.458Z,2.40
2023-11-17T00:46:28.383Z,2.40
2023-11-17T00:48:57.783Z,2.33
2023-11-17T00:51:26.427Z,1.95
2023-11-17T00:53:54.274Z,2.70
2023-11-17T00:56:22.091Z,2.22
2023-11-17T00:58:50.068Z,2.22
2023-11-17T01:01:19.474Z,1.90
2023-11-17T01:03:48.411Z,2.13
2023-11-17T01:06:16.445Z,2.30
2023-11-17T01:08:44.027Z,2.05
2023-11-17T01:11:13.544Z,1.85
2023-11-17T01:13:42.136Z,1.80
2023-11-17T01:16:10.180Z,1.90
2023-11-17T01:18:37.722Z,1.98
2023-11-17T01:21:06.989Z,1.20
2023-11-17T01:23:34.629Z,1.05
2023-11-17T01:26:02.154Z,1.20
2023-11-17T01:28:29.756Z,1.15
2023-11-17T01:30:57.478Z,1.20
2023-11-17T01:33:25.082Z,0.70
2023-11-17T01:35:52.593Z,0.90
2023-11-17T01:38:20.161Z,0.82
2023-11-17T01:40:47.701Z,0.70
2023-11-17T01:43:18.275Z,0.60
2023-11-17T01:45:46.091Z,0.80
2023-11-17T01:48:13.919Z,0.40
2023-11-17T01:50:41.539Z,0.60
2023-11-17T01:53:09.319Z,0.50
2023-11-17T01:55:37.025Z,0.57
2023-11-17T01:58:04.711Z,0.50
2023-11-17T02:00:32.883Z,0.38
2023-11-17T02:03:01.757Z,0.50
2023-11-17T02:05:29.681Z,0.50
2023-11-17T02:08:28.086Z,0.40
2023-11-17T02:11:09.082Z,0.40
2023-11-17T02:13:48.494Z,0.30
2023-11-17T02:16:25.871Z,0.40
2023-11-17T02:18:59.470Z,0.40
2023-11-17T02:21:32.716Z,0.30
2023-11-17T02:24:03.307Z,0.40
2023-11-17T02:26:43.887Z,0.40
2023-11-17T02:29:36.066Z,0.40
2023-11-17T02:32:05.571Z,0.50
2023-11-17T02:34:33.620Z,0.40
2023-11-17T02:37:07.071Z,0.40
2023-11-17T02:39:41.291Z,0.50
2023-11-17T02:42:15.158Z,0.30
2023-11-17T02:44:46.380Z,0.50
2023-11-17T02:47:21.270Z,0.35
2023-11-17T02:49:54.618Z,0.47
2023-11-17T02:52:33.522Z,0.20
2023-11-17T02:55:04.187Z,0.30
2023-11-17T02:57:37.289Z,0.30
2023-11-17T03:00:06.070Z,0.32
2023-11-17T03:02:34.164Z,0.20
2023-11-17T03:05:01.980Z,0.32
2023-11-17T03:07:29.673Z,0.30
2023-11-17T03:09:57.467Z,0.30
2023-11-17T03:12:28.705Z,0.20
2023-11-17T03:14:56.390Z,0.30
2023-11-17T03:17:24.247Z,0.30
2023-11-17T03:19:52.006Z,0.40
2023-11-17T03:22:19.712Z,0.20
2023-11-17T03:24:47.473Z,0.20
2023-11-17T03:27:16.020Z,0.20
2023-11-17T03:29:48.284Z,0.28
2023-11-17T03:32:18.353Z,0.30
2023-11-17T03:34:47.650Z,0.20
2023-11-17T03:37:15.404Z,0.30
2023-11-17T03:39:43.298Z,0.22
2023-11-17T03:42:20.063Z,0.30
2023-11-17T03:44:50.184Z,0.38
2023-11-17T03:47:18.988Z,1.20
2023-11-17T03:49:48.913Z,0.30
2023-11-17T03:52:16.797Z,0.43
2023-11-17T03:54:45.765Z,0.30
2023-11-17T03:57:13.933Z,0.50
2023-11-17T03:59:47.854Z,0.40
2023-11-17T04:02:16.603Z,0.50
2023-11-17T04:04:44.387Z,0.40
2023-11-17T04:07:14.803Z,0.30
2023-11-17T04:09:42.676Z,0.40
2023-11-17T04:12:11.370Z,0.40
2023-11-17T04:14:41.039Z,0.40
2023-11-17T04:17:11.925Z,0.60
2023-11-17T04:19:41.497Z,0.60
2023-11-17T04:22:09.437Z,0.60
2023-11-17T04:24:38.709Z,0.88
2023-11-17T04:27:08.966Z,0.80
2023-11-17T04:29:36.839Z,0.70
2023-11-17T04:32:04.869Z,0.50
2023-11-17T04:34:32.987Z,0.50
2023-11-17T04:37:02.566Z,0.55
2023-11-17T04:39:31.458Z,0.98
2023-11-17T04:41:59.757Z,0.70
2023-11-17T04:44:27.656Z,0.93
2023-11-17T04:46:56.562Z,0.55
2023-11-17T04:49:24.565Z,0.70
2023-11-17T04:51:52.464Z,0.68
2023-11-17T04:54:20.328Z,0.95
2023-11-17T04:56:48.054Z,0.80
2023-11-17T04:59:15.887Z,0.50
2023-11-17T05:01:43.574Z,0.70
2023-11-17T05:04:11.572Z,0.80
2023-11-17T05:06:39.184Z,0.90
2023-11-17T05:09:12.155Z,0.80
2023-11-17T05:11:40.695Z,0.90
2023-11-17T05:14:08.720Z,0.60
2023-11-17T05:16:38.631Z,1.15
2023-11-17T05:19:07.117Z,1.05
2023-11-17T05:21:35.061Z,0.85
2023-11-17T05:24:05.781Z,0.70
2023-11-17T05:26:34.344Z,0.82
2023-11-17T05:29:02.026Z,0.90
2023-11-17T05:31:30.172Z,1.00
2023-11-17T05:33:59.397Z,1.00
2023-11-17T05:36:27.593Z,1.13
2023-11-17T05:38:57.155Z,1.48
2023-11-17T05:41:27.234Z,1.52
2023-11-17T05:43:55.494Z,1.13
2023-11-17T05:46:24.111Z,0.90
2023-11-17T05:48:52.099Z,1.05
2023-11-17T05:51:20.029Z,0.90
2023-11-17T05:53:47.887Z,0.88
2023-11-17T05:56:17.566Z,1.45
2023-11-17T05:58:45.301Z,1.00
2023-11-17T06:01:15.374Z,0.80
2023-11-17T06:03:43.457Z,1.13
2023-11-17T06:06:11.384Z,1.30
2023-11-17T06:08:39.466Z,1.52
2023-11-17T06:11:10.213Z,1.50
2023-11-17T06:13:43.038Z,1.17
2023-11-17T06:16:18.979Z,1.23
2023-11-17T06:18:47.901Z,1.25
2023-11-17T06:21:15.592Z,1.15
2023-11-17T06:23:43.932Z,1.15
2023-11-17T06:26:11.743Z,0.93
2023-11-17T06:28:39.672Z,0.85
2023-11-17T06:31:10.443Z,1.20
2023-11-17T06:33:38.159Z,1.30
2023-11-17T06:36:07.962Z,1.33
2023-11-17T06:38:37.000Z,1.20
2023-11-17T06:41:05.695Z,0.90
2023-11-17T06:43:33.493Z,1.35
2023-11-17T06:46:01.495Z,1.20
2023-11-17T06:48:30.274Z,1.50
2023-11-17T06:50:58.949Z,0.90
2023-11-17T06:53:26.668Z,1.77
2023-11-17T06:55:54.377Z,1.17
2023-11-17T06:58:22.618Z,1.00
2023-11-17T07:00:50.985Z,1.15
2023-11-17T07:03:19.021Z,1.55
2023-11-17T07:05:48.224Z,1.50
2023-11-17T07:08:16.051Z,1.95
2023-11-17T07:10:45.518Z,1.65
2023-11-17T07:13:13.450Z,1.38
2023-11-17T07:15:42.254Z,1.17
2023-11-17T07:18:12.186Z,1.67
2023-11-17T07:20:40.990Z,1.10
2023-11-17T07:23:10.338Z,1.27
2023-11-17T07:25:42.516Z,1.42
2023-11-17T07:28:10.303Z,1.00
2023-11-17T07:30:38.177Z,1.35
2023-11-17T07:33:06.902Z,1.20
2023-11-17T07:35:34.848Z,1.30
2023-11-17T07:38:03.647Z,1.17
2023-11-17T07:40:32.958Z,1.85
2023-11-17T07:43:01.738Z,1.55
2023-11-17T07:45:29.604Z,1.35
2023-11-17T07:47:57.210Z,1.58
2023-11-17T07:50:24.894Z,2.13
2023-11-17T07:52:52.449Z,1.70
2023-11-17T07:55:20.314Z,1.40
2023-11-17T07:57:47.952Z,1.20
2023-11-17T08:00:26.427Z,1.45
2023-11-17T08:02:54.183Z,1.58
2023-11-17T08:05:21.985Z,1.48
2023-11-17T08:07:49.944Z,1.75
2023-11-17T08:10:21.010Z,1.70
2023-11-17T08:12:48.814Z,1.52
2023-11-17T08:15:18.683Z,1.88
2023-11-17T08:17:46.380Z,2.20
2023-11-17T08:20:29.178Z,1.83
2023-11-17T08:22:56.832Z,2.40
2023-11-17T08:25:28.006Z,1.63
2023-11-17T08:27:55.786Z,1.50
2023-11-17T08:30:23.471Z,2.13
2023-11-17T08:32:51.137Z,2.20
2023-11-17T08:35:19.421Z,2.88
2023-11-17T08:37:47.003Z,2.08
2023-11-17T08:40:17.617Z,1.50
2023-11-17T08:42:45.940Z,2.15
2023-11-17T08:45:13.972Z,1.85
2023-11-17T08:47:43.225Z,1.73
2023-11-17T08:50:12.289Z,1.88
2023-11-17T08:52:43.513Z,1.88
2023-11-17T08:55:16.322Z,1.38
2023-11-17T08:57:45.505Z,2.15
2023-11-17T09:00:20.591Z,1.35
2023-11-17T09:02:52.053Z,1.63
2023-11-17T09:05:21.174Z,2.97
2023-11-17T09:07:52.060Z,1.67
2023-11-17T09:10:24.052Z,1.13
2023-11-17T09:12:52.008Z,1.95
2023-11-17T09:15:21.660Z,2.10
2023-11-17T09:17:53.601Z,1.83
2023-11-17T09:20:24.845Z,1.80
2023-11-17T09:22:53.414Z,1.08
2023-11-17T09:25:24.842Z,1.65
2023-11-17T09:27:55.596Z,1.48
2023-11-17T09:30:23.942Z,1.50
2023-11-17T09:32:57.073Z,1.30
2023-11-17T09:35:29.341Z,1.48
2023-11-17T09:38:01.389Z,2.15
2023-11-17T09:40:38.141Z,1.58
2023-11-17T09:43:22.221Z,1.38
2023-11-17T09:46:00.925Z,2.10
2023-11-17T09:48:29.865Z,1.70
2023-11-17T09:51:03.541Z,1.00
2023-11-17T09:53:36.986Z,1.52
2023-11-17T09:56:10.542Z,2.55
2023-11-17T09:58:39.206Z,2.53
2023-11-17T10:01:12.140Z,1.45
2023-11-17T10:03:40.449Z,1.77
2023-11-17T10:06:09.399Z,1.50
2023-11-17T10:08:41.056Z,1.58
2023-11-17T10:11:11.389Z,1.75
2023-11-17T10:13:39.586Z,1.45
2023-11-17T10:16:09.180Z,1.48
2023-11-17T10:18:38.686Z,1.30
2023-11-17T10:21:06.631Z,1.10
2023-11-17T10:23:35.201Z,1.33
2023-11-17T10:26:03.020Z,1.35
2023-11-17T10:28:30.775Z,1.10
2023-11-17T10:31:01.914Z,1.45
2023-11-17T10:33:31.289Z,1.13
2023-11-17T10:36:11.793Z,1.10
2023-11-17T10:38:48.097Z,1.23
2023-11-17T10:41:23.422Z,1.10
2023-11-17T10:43:53.223Z,1.33
2023-11-17T10:46:29.226Z,1.33
2023-11-17T10:49:06.558Z,0.82
2023-11-17T10:51:46.598Z,1.40
2023-11-17T10:54:14.425Z,1.10
2023-11-17T10:56:43.665Z,0.70
2023-11-17T10:59:17.362Z,1.25
2023-11-17T11:01:45.945Z,1.75
2023-11-17T11:04:18.869Z,1.33
2023-11-17T11:06:48.443Z,0.93
2023-11-17T11:09:20.633Z,1.02
2023-11-17T11:11:52.235Z,2.40
2023-11-17T11:14:21.985Z,1.08
2023-11-17T11:16:50.503Z,0.90
2023-11-17T11:19:24.419Z,0.93
2023-11-17T11:22:02.755Z,1.35
2023-11-17T11:24:37.677Z,1.00
2023-11-17T11:27:07.958Z,1.30
2023-11-17T11:29:40.338Z,1.85
2023-11-17T11:32:09.886Z,1.45
2023-11-17T11:34:38.270Z,2.00
2023-11-17T11:37:06.117Z,1.40
2023-11-17T11:39:33.763Z,1.42
2023-11-17T11:42:01.954Z,1.00
2023-11-17T11:44:29.569Z,1.30
2023-11-17T11:46:59.298Z,1.17
2023-11-17T11:49:27.673Z,0.90
2023-11-17T11:52:19.512Z,1.30
2023-11-17T11:54:47.168Z,0.93
2023-11-17T11:57:35.987Z,1.13
2023-11-17T12:00:15.191Z,0.68
2023-11-17T12:02:59.724Z,1.67
2023-11-17T12:05:32.041Z,1.02
2023-11-17T12:08:03.240Z,1.77
2023-11-17T12:10:54.656Z,1.05
2023-11-17T12:13:45.018Z,1.23
2023-11-17T12:16:15.693Z,1.00
2023-11-17T12:18:47.598Z,0.80
2023-11-17T12:21:20.894Z,0.85
2023-11-17T12:23:50.095Z,0.77
2023-11-17T12:26:19.864Z,1.17
2023-11-17T12:28:48.486Z,1.13
2023-11-17T12:31:17.105Z,1.33
2023-11-17T12:33:45.955Z,1.25
2023-11-17T12:36:16.997Z,1.38
2023-11-17T12:38:45.752Z,1.17
2023-11-17T12:41:14.147Z,1.05
2023-11-17T12:43:46.473Z,0.93
2023-11-17T12:46:14.834Z,2.60
2023-11-17T12:48:44.432Z,1.63
2023-11-17T12:51:13.207Z,1.10
2023-11-17T12:53:50.958Z,1.05
2023-11-17T12:56:20.611Z,1.17
2023-11-17T12:58:48.071Z,1.55
2023-11-17T13:01:21.015Z,1.10
2023-11-17T13:03:53.479Z,1.85
2023-11-17T13:06:25.440Z,1.10
2023-11-17T13:08:54.790Z,0.90
2023-11-17T13:11:34.170Z,1.00
2023-11-17T13:14:02.530Z,1.20
2023-11-17T13:16:31.015Z,1.38
2023-11-17T13:19:01.970Z,1.40
2023-11-17T13:21:32.216Z,1.88
2023-11-17T13:24:00.251Z,0.80
2023-11-17T13:26:29.555Z,1.38
2023-11-17T13:28:58.313Z,2.28
2023-11-17T13:31:28.861Z,1.58
2023-11-17T13:33:58.958Z,1.83
2023-11-17T13:36:31.868Z,1.95
2023-11-17T13:39:16.759Z,2.55
2023-11-17T13:41:46.530Z,1.98
2023-11-17T13:44:31.819Z,1.27
2023-11-17T13:47:02.506Z,1.52
2023-11-17T13:49:35.843Z,1.35
2023-11-17T13:52:06.358Z,2.15
2023-11-17T13:54:35.650Z,1.33
2023-11-17T13:57:09.159Z,1.83
2023-11-17T13:59:37.550Z,1.67
2023-11-17T14:02:10.611Z,2.08
2023-11-17T14:04:39.288Z,1.40
2023-11-17T14:07:08.319Z,1.20
2023-11-17T14:09:37.357Z,1.00
2023-11-17T14:12:05.412Z,1.25
2023-11-17T14:14:33.571Z,0.77
2023-11-17T14:17:06.683Z,1.23
2023-11-17T14:19:36.017Z,0.95
2023-11-17T14:22:05.376Z,1.08
2023-11-17T14:24:33.105Z,1.70
2023-11-17T14:27:00.852Z,1.23
2023-11-17T14:29:35.338Z,1.40
2023-11-17T14:32:03.519Z,1.35
2023-11-17T14:34:32.138Z,1.45
2023-11-17T14:37:00.828Z,1.35
2023-11-17T14:39:33.123Z,1.23
2023-11-17T14:42:01.628Z,1.58
2023-11-17T14:44:30.267Z,1.15
2023-11-17T14:46:58.522Z,1.13
2023-11-17T14:49:28.600Z,0.90
2023-11-17T14:52:01.789Z,1.20
2023-11-17T14:54:29.636Z,1.73
2023-11-17T14:56:58.010Z,1.42
2023-11-17T14:59:26.622Z,0.95
2023-11-17T15:01:54.446Z,1.55
2023-11-17T15:04:22.109Z,1.15
2023-11-17T15:06:51.568Z,1.33
2023-11-17T15:09:21.978Z,1.00
2023-11-17T15:11:50.706Z,1.45
2023-11-17T15:14:21.623Z,0.80
2023-11-17T15:16:51.012Z,0.90
2023-11-17T15:19:20.662Z,1.38
2023-11-17T15:21:48.564Z,1.38
2023-11-17T15:24:23.711Z,1.27
2023-11-17T15:26:56.200Z,1.35
2023-11-17T15:29:27.881Z,1.15
2023-11-17T15:31:56.439Z,1.15
2023-11-17T15:34:24.980Z,1.20
2023-11-17T15:36:54.910Z,1.10
2023-11-17T15:39:28.431Z,1.48
2023-11-17T15:41:56.033Z,0.90
2023-11-17T15:44:24.845Z,0.80
2023-11-17T15:46:52.388Z,0.95
2023-11-17T15:49:20.189Z,0.80
2023-11-17T15:51:47.588Z,1.13
2023-11-17T15:54:16.300Z,1.83
2023-11-17T15:56:47.789Z,3.40
2023-11-17T15:59:15.406Z,2.28
2023-11-17T16:01:45.117Z,2.65
2023-11-17T16:04:13.502Z,2.50
2023-11-17T16:06:41.475Z,1.77
2023-11-17T16:09:12.256Z,1.10
2023-11-17T16:11:42.005Z,1.10
2023-11-17T16:14:14.362Z,1.42
2023-11-17T16:16:43.217Z,1.50
2023-11-17T16:19:11.382Z,0.90
2023-11-17T16:21:39.682Z,1.42
2023-11-17T16:24:07.757Z,1.17
2023-11-17T16:26:38.328Z,1.30
2023-11-17T16:29:07.515Z,1.60
2023-11-17T16:31:39.306Z,1.00
2023-11-17T16:34:06.966Z,2.50
2023-11-17T16:36:35.172Z,2.17
2023-11-17T16:39:06.797Z,1.50
2023-11-17T16:41:34.291Z,2.00
2023-11-17T16:44:02.296Z,1.55
2023-11-17T16:46:29.886Z,1.67
2023-11-17T16:48:57.634Z,3.85
2023-11-17T16:51:25.134Z,1.63
2023-11-17T16:53:52.595Z,2.00
2023-11-17T16:56:20.209Z,2.63
2023-11-17T16:58:47.807Z,2.88
2023-11-17T17:01:15.559Z,3.13
2023-11-17T17:03:43.409Z,2.85
2023-11-17T17:06:14.627Z,2.55
2023-11-17T17:08:42.211Z,2.33
2023-11-17T17:11:09.699Z,3.53
2023-11-17T17:13:41.435Z,3.33
2023-11-17T17:16:09.452Z,3.00
2023-11-17T17:18:37.089Z,3.30
2023-11-17T17:21:07.909Z,3.67
2023-11-17T17:23:37.497Z,2.65
2023-11-17T17:26:05.492Z,4.28
2023-11-17T17:28:35.658Z,2.65
2023-11-17T17:31:03.860Z,3.90
2023-11-17T17:33:31.330Z,3.63
2023-11-17T17:35:58.831Z,3.22
2023-11-17T17:38:27.458Z,2.80
2023-11-17T17:40:55.865Z,2.80
2023-11-17T17:43:23.434Z,3.22
2023-11-17T17:45:51.242Z,3.50
2023-11-17T17:48:18.826Z,4.10
2023-11-17T17:50:46.443Z,4.15
2023-11-17T17:53:13.926Z,4.10
2023-11-17T17:55:41.856Z,4.55
2023-11-17T17:58:11.302Z,4.13
2023-11-17T18:00:40.249Z,3.92
2023-11-17T18:03:08.047Z,4.97
2023-11-17T18:05:35.873Z,4.38
2023-11-17T18:08:03.437Z,4.32
2023-11-17T18:10:33.189Z,3.55
2023-11-17T18:13:02.009Z,3.80
2023-11-17T18:15:30.102Z,3.70
2023-11-17T18:17:58.536Z,4.35
2023-11-17T18:20:26.272Z,4.65
2023-11-17T18:22:55.482Z,4.57
2023-11-17T18:25:23.760Z,4.28
2023-11-17T18:27:55.806Z,4.13
2023-11-17T18:30:24.734Z,3.92
2023-11-17T18:32:53.436Z,4.93
2023-11-17T18:35:24.816Z,4.53
2023-11-17T18:38:13.180Z,4.82
2023-11-17T18:40:50.169Z,6.22
2023-11-17T18:43:18.709Z,6.38
2023-11-17T18:45:48.389Z,6.10
2023-11-17T18:48:16.124Z,5.60
2023-11-17T18:50:45.595Z,6.10
2023-11-17T18:53:14.907Z,5.95
2023-11-17T18:55:44.515Z,5.93
2023-11-17T18:58:13.017Z,6.32
2023-11-17T19:01:36.520Z,5.50
2023-11-17T19:04:36.772Z,6.25
2023-11-17T19:07:07.199Z,6.38
2023-11-17T19:09:41.944Z,5.75
2023-11-17T19:12:13.523Z,6.15
2023-11-17T19:14:41.114Z,6.28
2023-11-17T19:17:11.349Z,4.72
2023-11-17T19:19:39.208Z,5.95
2023-11-17T19:22:08.211Z,5.30
2023-11-17T19:24:37.364Z,6.13
2023-11-17T19:27:11.785Z,5.90
2023-11-17T19:32:11.714Z,5.85
2023-11-17T19:34:40.428Z,5.93
2023-11-17T19:37:08.758Z,5.40
2023-11-17T19:39:36.402Z,5.63
2023-11-17T19:42:12.746Z,6.80
2023-11-17T19:44:50.222Z,7.55
2023-11-17T19:47:19.870Z,6.65
2023-11-17T19:49:48.350Z,6.63
2023-11-17T19:52:17.933Z,6.78
2023-11-17T19:54:47.531Z,5.40
2023-11-17T19:57:15.119Z,6.93
2023-11-17T19:59:42.582Z,6.03
2023-11-17T20:02:10.260Z,6.57
2023-11-17T20:04:39.568Z,5.78
2023-11-17T20:07:09.043Z,6.90
2023-11-17T20:09:45.274Z,6.70
2023-11-17T20:12:13.068Z,6.93
2023-11-17T20:14:42.323Z,8.85
2023-11-17T20:17:11.305Z,8.80
2023-11-17T20:19:40.993Z,8.18
2023-11-17T20:22:09.210Z,9.98
2023-11-17T20:24:37.887Z,9.73
2023-11-17T20:27:07.173Z,8.98
2023-11-17T20:29:34.899Z,9.50
2023-11-17T20:32:02.897Z,9.55
2023-11-17T20:34:31.110Z,8.82
2023-11-17T20:36:58.932Z,8.23
2023-11-17T20:39:29.662Z,9.70
2023-11-17T20:41:57.285Z,9.88
2023-11-17T20:44:24.904Z,8.63
2023-11-17T20:46:52.663Z,8.38
2023-11-17T20:49:20.423Z,10.20
2023-11-17T20:51:47.967Z,8.90
2023-11-17T20:54:18.055Z,8.93
2023-11-17T20:56:46.556Z,9.80
2023-11-17T20:59:14.286Z,9.85
2023-11-17T21:01:48.434Z,10.02
2023-11-17T21:04:30.019Z,8.48
2023-11-17T21:06:57.566Z,7.60
2023-11-17T21:09:24.952Z,8.43
2023-11-17T21:11:52.502Z,7.40
2023-11-17T21:14:20.570Z,7.50
2023-11-17T21:16:48.048Z,8.65
2023-11-17T21:19:15.731Z,7.97
2023-11-17T21:21:45.033Z,7.35
2023-11-17T21:24:25.073Z,7.80
2023-11-17T21:26:55.527Z,7.93
2023-11-17T21:29:24.487Z,9.32
2023-11-17T21:31:53.503Z,8.35
2023-11-17T21:34:21.294Z,7.85
2023-11-17T21:36:50.194Z,7.50
2023-11-17T21:39:21.281Z,9.43
2023-11-17T21:41:49.392Z,8.07
2023-11-17T21:44:19.269Z,10.35
2023-11-17T21:46:46.832Z,9.77
2023-11-17T21:49:14.370Z,9.70
2023-11-17T21:51:41.825Z,7.80
2023-11-17T21:54:09.188Z,7.80
2023-11-17T21:56:36.611Z,7.32
2023-11-17T21:59:04.132Z,6.97
2023-11-17T22:01:31.719Z,6.20
2023-11-17T22:03:59.322Z,6.05
2023-11-17T22:06:27.210Z,7.55
2023-11-17T22:08:54.617Z,5.72
2023-11-17T22:11:22.242Z,6.20
2023-11-17T22:13:49.804Z,3.95
2023-11-17T22:16:17.316Z,3.58
2023-11-17T22:18:45.332Z,2.95
2023-11-17T22:21:13.790Z,2.83
2023-11-17T22:23:42.471Z,1.92
2023-11-17T22:26:14.257Z,1.98
2023-11-17T22:28:41.909Z,2.40
2023-11-17T22:31:09.451Z,2.20
2023-11-17T22:33:36.938Z,2.40
2023-11-17T22:36:05.045Z,2.13
2023-11-17T22:38:32.440Z,1.35
2023-11-17T22:41:00.064Z,1.73
2023-11-17T22:43:28.411Z,1.45
2023-11-17T22:45:55.878Z,2.17
2023-11-17T22:48:23.288Z,1.48
2023-11-17T22:50:50.812Z,1.80
2023-11-17T22:53:18.203Z,1.33
2023-11-17T22:55:45.727Z,2.35
2023-11-17T22:58:13.908Z,1.88
2023-11-17T23:00:42.571Z,1.83
2023-11-17T23:03:10.942Z,1.80
2023-11-17T23:05:43.492Z,1.20
2023-11-17T23:08:15.348Z,1.48
2023-11-17T23:10:43.353Z,1.23
2023-11-17T23:13:13.215Z,2.10
2023-11-17T23:15:41.265Z,1.58
2023-11-17T23:18:08.946Z,1.50
2023-11-17T23:20:37.682Z,1.10
2023-11-17T23:23:05.323Z,1.55
2023-11-17T23:25:37.916Z,1.85
2023-11-17T23:28:09.323Z,2.42
2023-11-17T23:30:37.034Z,1.33
2023-11-17T23:33:09.166Z,2.05
2023-11-17T23:35:37.310Z,1.70
2023-11-17T23:38:05.663Z,1.63
2023-11-17T23:40:33.319Z,1.90
2023-11-17T23:43:01.825Z,2.90
2023-11-17T23:45:30.852Z,2.20
2023-11-17T23:47:58.912Z,1.15
2023-11-17T23:50:26.696Z,1.13
2023-11-17T23:52:54.742Z,1.13
2023-11-17T23:55:22.311Z,1.10
2023-11-17T23:57:49.959Z,1.20
